^^
Meteo Knjazevac Station Historical Data
Daily Summary for September 30, 2022 Units:  English    Metric   Both
Daily Weekly Monthly Yearly Custom
  High: Low: Average:
Temperature: 60.4 °F 57.9 °F 58.8 °F
Dew Point: 57.8 °F 56.1 °F 56.7 °F
Humidity: 95% 89% 93%
Wind Speed: 6.9mph 0.9mph 3.1mph
Wind Gust: 8mph - -
Wind- - South
Pressure: 29.94 in 29.92 in -
Precipitation: 0.00 in    
Historical Graphs
 
 
Tabular Data for September 30, 2022
Time Temperature Dew Point Pressure Wind Wind Speed Wind Gust Humidity Rainfall Rate (Hourly) solar Conditions
00:04 60.1 °F 56.8 °F 29.92 in NW 0.9 mph 2 mph 89% 0.00 in 0 W/m2
00:09 59.8 °F 56.6 °F 29.92 in NNW 1.7 mph 2.2 mph 89% 0.00 in 0 W/m2
00:14 59.5 °F 56.5 °F 29.92 in NNW 2.3 mph 2 mph 89.8% 0.00 in 0 W/m2
00:19 59 °F 56.1 °F 29.92 in NNW 1.8 mph 3 mph 90.2% 0.00 in 0 W/m2
00:24 58.6 °F 56.1 °F 29.92 in North 1.4 mph 2 mph 91.2% 0.00 in 0 W/m2
00:29 58.5 °F 56.4 °F 29.92 in NNW 1.3 mph 2 mph 92.9% 0.00 in 0 W/m2
00:34 58.2 °F 56.2 °F 29.93 in North 3.7 mph 3.6 mph 93.1% 0.00 in 0 W/m2
00:39 58.2 °F 56.5 °F 29.93 in NNE 3.4 mph 5 mph 93.9% 0.00 in 0 W/m2
00:44 58.4 °F 56.3 °F 29.93 in NNE 4.3 mph 4.2 mph 93% 0.00 in 0 W/m2
00:49 58.5 °F 56.5 °F 29.93 in NE 3.5 mph 6 mph 93% 0.00 in 0 W/m2
00:54 58.6 °F 56.5 °F 29.93 in NE 4.4 mph 4.7 mph 93% 0.00 in 0 W/m2
00:59 58.5 °F 56.4 °F 29.93 in NE 3.7 mph 6 mph 93% 0.00 in 0 W/m2
01:04 58.6 °F 56.6 °F 29.93 in ENE 4.1 mph 4 mph 93% 0.00 in 0 W/m2
01:09 58.6 °F 56.6 °F 29.93 in East 3 mph 6 mph 93% 0.00 in 0 W/m2
01:14 58.8 °F 56.6 °F 29.93 in East 3.8 mph 3.1 mph 92.5% 0.00 in 0 W/m2
01:19 59.1 °F 56.5 °F 29.93 in ESE 3.6 mph 6 mph 91.1% 0.00 in 0 W/m2
01:24 59.2 °F 56.6 °F 29.93 in SE 2.5 mph 5 mph 91% 0.00 in 0 W/m2
01:29 58.9 °F 56.3 °F 29.93 in SW 2.2 mph 4 mph 91.2% 0.00 in 0 W/m2
01:34 58.6 °F 56.5 °F 29.93 in ENE 3.2 mph 3 mph 92.9% 0.00 in 0 W/m2
01:39 58.5 °F 56.6 °F 29.94 in ENE 1.6 mph 5 mph 93.4% 0.00 in 0 W/m2
01:44 58.3 °F 56.6 °F 29.94 in NW 2.9 mph 2.7 mph 94% 0.00 in 0 W/m2
01:49 58.1 °F 56.4 °F 29.94 in NW 3.1 mph 4 mph 94% 0.00 in 0 W/m2
01:54 57.9 °F 56.2 °F 29.94 in NW 2.6 mph 5 mph 94.1% 0.00 in 0 W/m2
01:59 57.9 °F 56.4 °F 29.94 in WNW 2.2 mph 3 mph 94.8% 0.00 in 0 W/m2
02:04 58 °F 56.6 °F 29.94 in SW 2.5 mph 3 mph 95% 0.00 in 0 W/m2
02:09 58.2 °F 56.8 °F 29.94 in South 2.9 mph 3 mph 95% 0.00 in 0 W/m2
02:14 58.5 °F 57 °F 29.94 in ESE 2.8 mph 4 mph 95% 0.00 in 0 W/m2
02:19 58.6 °F 57 °F 29.94 in ENE 2.6 mph 4 mph 94.4% 0.00 in 0 W/m2
02:24 58.7 °F 57.1 °F 29.93 in NE 2.8 mph 3 mph 94.3% 0.00 in 0 W/m2
02:29 58.8 °F 57.4 °F 29.93 in NNE 2.1 mph 3 mph 95% 0.00 in 0 W/m2
02:34 58.9 °F 57.4 °F 29.93 in East 5.8 mph 4.5 mph 94.5% 0.00 in 0 W/m2
02:39 59.7 °F 57.8 °F 29.93 in ESE 6.9 mph 7 mph 93.5% 0.00 in 0 W/m2
02:44 60.4 °F 57.8 °F 29.92 in ESE 6 mph 8 mph 91.3% 0.00 in 0 W/m2
02:49 60.4 °F 57.8 °F 29.92 in SSE 2.8 mph 7 mph 91% 0.00 in 0 W/m2
02:54 60.3 °F 57.6 °F 29.92 in West 3 mph 3 mph 91% 0.00 in 0 W/m2
Knjazevac, Serbia
Compliments of Weather Underground - 2 mb